Aurora, CO (80017)

5:09 PM MST on December 28, 2014 (GMT -0700)
Stone Ridge Park | Change Station
CLOSE
Current Station
Personal Weather Station
Location: Aurora, CO
Elevation: 5597 ft
Nearby Weather Stations
Active Advisory: Winter Weather Advisory

Elev 5597 ft 39.69 °N, 104.77 °W | Updated 14 minutes ago

Partly Cloudy
Partly Cloudy
28.6 °F
Feels Like 29 °F
N
1.1
Wind Variable Wind from NE

Today
High -- | Low -- °F
--% Chance of Precip.
Yesterday
High -- | Low -- °F
Precip. -- in
7:19 AM 4:42 PM
First Quarter, 53% visible
Pressure 30.00 in
Visibility 10.0 miles
Clouds Few 10000 ft
Windchill 29 °F
Dew Point 12 °F
Humidity 49%
Rainfall 0.00 in
Snow Depth Not available.
UV 0 out of 12
Pollen .10 out of 12
Air Quality Not available.
Flu Activity Not available.
METAR KBKF 282358Z 04004KT 10SM FEW100 M03/M11 A2987 RMK AO2A SLP158 T10301115 10036 21030 52014

More Conditions Fewer Conditions

Pressure 30.00 in
Visibility 10.0 miles
Clouds Few 10000 ft
Windchill 29 °F
Dew Point 12 °F
Humidity 49%
Rainfall 0.00 in
Snow Depth Not available.
UV 0 out of 12
Pollen .10 out of 12
Air Quality Not available.
Flu Activity Not available.
METAR KBKF 282358Z 04004KT 10SM FEW100 M03/M11 A2987 RMK AO2A SLP158 T10301115 10036 21030 52014

More Conditions Fewer Conditions

10-Day Weather Forecast

Almanac

Astronomy

Dec. 28, 2014 Rise Set
Actual Time
Civil Twilight
Nautical Twilight
Astronomical Twilight
Moon
Length of Visible Light
Length of Day
Tomorrow will be .
, % of the Moon is Illuminated

Today's Extremes

State Highs State Lows

Community

WunderPhotos

Upload Photos

1,781,467 photos uploaded!

WunderBlogs® & News

Nearby

Air Quality

  Air Quality AQ Index Pollutant
Not available.

Snow Depth

Station Depth Elevation

Earthquake Activity

City Distance Mag. Time & Date
Minimum magnitude displayed is 2.5.

Coastal Water Temperatures

Place Temperature

Nearby Weather Stations